Sidnaw, MI (49961)

8:42 AM EST on February 14, 2016 (GMT -0500)
MesoWest | | Change Station
CLOSE
Current Station
Personal Weather Station
Location: Kenton, MI
Elevation: 1521 ft
Nearby Weather Stations

Elev 1521 ft 46.48 °N, 88.99 °W | Updated 42 minutes ago

Mostly Cloudy
Mostly Cloudy
-18 °F
Feels Like -18 °F
N
2
Wind Variable Wind from NNE
Gusts 5.0 mph

Today
High -- | Low -- °F
--% Chance of Precip.
Yesterday
High -- | Low -- °F
Precip. -- in
Pressure 30.20 in
Visibility 10.0 miles
Clouds Clear
Windchill -18 °F
Dew Point -22 °F
Humidity 79%
Rainfall in
Snow Depth Not available.
8:00 AM 6:18 PM
Waxing Crescent, 42% visible
METAR KLNL 141310Z AUTO 00000KT 10SM CLR M32/M36 A3020 RMK AO2 T13251362
Pressure 30.20 in
Visibility 10.0 miles
Clouds Clear
Windchill -18 °F
Dew Point -22 °F
Humidity 79%
Rainfall in
Snow Depth Not available.
8:00 AM 6:18 PM
Waxing Crescent, 42% visible
METAR KLNL 141310Z AUTO 00000KT 10SM CLR M32/M36 A3020 RMK AO2 T13251362

10-Day Weather Forecast

Almanac

Astronomy

Feb. 14, 2016 Rise Set
Actual Time
Civil Twilight
Nautical Twilight
Astronomical Twilight
Moon
Length of Visible Light
Length of Day
Tomorrow will be .
, % of the Moon is Illuminated

Today's Extremes

State Highs State Lows

Community

WunderPhotos

Upload Photos

1,892,793 photos uploaded!

WunderBlog® & News

Nearby

Air Quality

  Air Quality AQ Index Pollutant
Not available.

Snow Depth

Station Depth Elevation

Earthquake Activity

City Distance Mag. Time & Date
Minimum magnitude displayed is 2.5.

Coastal Water Temperatures

Place Temperature

Stations

Nearby Weather Stations

Station Location Temp. Windchill Dew Point Humidity Wind Precip. Elev Updated Type
                   

Watches & Warnings

There are currently no watches in effect.